• Join FlightAware (Why Join?)
  • Login
  • US Flag 
Rudolph Flight #1: Arrived! 
12:40PM EST


 

Airport Tracker/Info


-or-


 

Live Flight TrackerFlight Track Log ✈ UAL4588 ✈ 12-Apr-2013 ✈ KRIC - KEWR

Flight Track Log - Related Links

Times and Time Zones

All times are in EDT time to prevent confusion due to time zone crossing. See the UAL4588 flight status page for this flight to view local times or setup timezone preferences in your user account.

Time Position Orientation Groundspeed Altitude Reporting Facility
EDT Latitude Longitude Course Direction KTS MPH feet Rate Location/Type
04:05PM 37.4833 -77.2667 38° Northeast 201 231 2,100  Level Potomac TRACON
04:06PM 37.4950 -77.2147 74° East 232 267 3,100 1,800 Climbing Washington Center
04:07PM 37.5314 -77.1317 61° Northeast 286 329 5,100 1,980 Climbing Washington Center
04:08PM 37.7516 -77.0485 38° Northeast  Level FlightAware Approximate
04:08PM 37.5742 -77.0408 59° Northeast 292 336 7,100  Level Washington Center
04:09PM 37.8162 -76.9837 38° Northeast  Level FlightAware Approximate
04:09PM 37.6150 -76.9497 60° Northeast 297 342 8,900  Level Washington Center
04:10PM 37.8810 -76.9191 38° Northeast  Level FlightAware Approximate
04:10PM 37.6597 -76.8508 60° Northeast 302 348 9,900  Level Washington Center
04:11PM 37.9457 -76.8543 38° Northeast  Level FlightAware Approximate
04:11PM 37.7253 -76.7786 41° Northeast 300 345 11,700  Level Washington Center
04:12PM 37.8153 -76.7511 14° North 300 345 13,500 1,380 Climbing Washington Center
04:13PM 37.9072 -76.7261 12° North 315 362 14,500 780 Climbing Washington Center
04:14PM 38.0097 -76.6908 15° North 345 397 15,100 660 Climbing Washington Center
04:15PM 38.1186 -76.6369 21° North 385 443 15,900 900 Climbing Washington Center
04:16PM 38.1989 -76.5244 48° Northeast 399 459 16,900 540 Climbing Washington Center
04:17PM 38.2872 -76.4117 45° Northeast 423 487 17,000  Climbing Washington Center
04:18PM 38.4064 -76.3733 14° North 423 487 17,000  Level Washington Center
04:19PM 38.5336 -76.3508 North 428 493 17,000  Level Washington Center
04:20PM 38.6525 -76.3308 North 434 499 17,000  Level Washington Center
04:21PM 38.7486 -76.3078 11° North 409 471 17,000  Level Washington Center
04:22PM 38.8569 -76.3114 359° North 379 436 17,000  Level Washington Center
04:23PM 38.9528 -76.3336 350° North 346 398 17,000  Level Washington Center
04:24PM 39.0508 -76.3319 North 351 404 17,000 -60 Level Washington Center
04:25PM 39.1283 -76.2364 44° Northeast 339 390 16,900 -60 Descending Washington Center
04:26PM 39.1706 -76.1111 66° East 346 398 16,900  Level Washington Center
04:28PM 39.2557 -75.9950 42° Northeast  Level FlightAware Approximate
04:28PM 39.2922 -75.8947 42° Northeast 369 425 16,900  Level Washington Center
04:29PM 39.3925 -75.8064 34° Northeast 389 448 17,100 60 Climbing Washington Center
04:30PM 39.4928 -75.7100 37° Northeast 426 490 17,100 -60 Level Washington Center
04:31PM 39.5969 -75.6103 36° Northeast 445 512 17,000 -60 Descending Washington Center
04:32PM 39.7031 -75.5106 36° Northeast 457 526 17,000 -420 Level Washington Center
04:33PM 39.8050 -75.4133 36° Northeast 457 526 16,200 -1,200 Descending Washington Center
04:34PM 39.9092 -75.3156 36° Northeast 457 526 14,600 -1,680 Descending Washington Center
04:35PM 40.0025 -75.2178 39° Northeast 450 518 12,900 -1,680 Descending Washington Center
04:36PM 40.0856 -75.1142 44° Northeast 425 489 11,300 -1,260 Descending Washington Center
04:37PM 40.1833 -75.0000 42° Northeast 339 390 10,100 -1,380 Descending New York TRACON
04:38PM 40.2500 -74.9167 44° Northeast 315 362 8,200 -1,140 Descending New York TRACON
04:39PM 40.3000 -74.8333 52° Northeast 269 310 7,900 -780 Descending New York TRACON
04:40PM 40.3500 -74.7833 37° Northeast 254 292 6,700 -1,320 Descending New York TRACON
04:41PM 40.4000 -74.7000 52° Northeast 256 295 5,300 -900 Descending New York TRACON
04:42PM 40.3833 -74.6167 105° East 252 290 5,000 -600 Descending New York TRACON
04:43PM 40.3667 -74.5333 105° East 223 257 4,200 -1,020 Descending New York TRACON
04:44PM 40.3833 -74.4667 72° East 217 250 3,000 -1,020 Descending New York TRACON
04:45PM 40.4000 -74.3833 75° East 199 229 2,200 -540 Descending New York TRACON
04:46PM 40.4333 -74.3333 49° Northeast 169 194 2,000 -120 Descending New York TRACON
04:47PM 40.4667 -74.3000 37° Northeast 181 208 2,000  Level New York TRACON
04:48PM 40.5167 -74.2833 14° North 177 204 2,000  Level New York TRACON